createdAt,value
2022-10-26T00:03:35.122Z,1.73
2022-10-26T00:11:38.367Z,1.67
2022-10-26T00:15:41.846Z,1.52
2022-10-26T00:19:43.461Z,2.22
2022-10-26T00:23:45.544Z,1.52
2022-10-26T00:27:47.455Z,1.80
2022-10-26T00:31:49.430Z,6.07
2022-10-26T00:35:54.422Z,4.50
2022-10-26T00:39:56.048Z,1.67
2022-10-26T00:43:57.927Z,1.30
2022-10-26T00:48:07.445Z,1.63
2022-10-26T00:52:09.579Z,1.30
2022-10-26T00:56:11.346Z,1.23
2022-10-26T01:00:13.386Z,1.15
2022-10-26T01:04:15.898Z,1.63
2022-10-26T01:08:18.494Z,1.75
2022-10-26T01:12:20.123Z,1.67
2022-10-26T01:16:57.037Z,2.40
2022-10-26T01:21:01.845Z,1.63
2022-10-26T01:25:16.243Z,1.35
2022-10-26T01:29:44.358Z,1.00
2022-10-26T01:34:00.309Z,1.48
2022-10-26T01:38:10.624Z,1.35
2022-10-26T01:42:15.836Z,1.20
2022-10-26T01:46:22.575Z,1.23
2022-10-26T01:50:26.013Z,1.50
2022-10-26T01:54:32.030Z,1.15
2022-10-26T01:59:23.301Z,1.17
2022-10-26T02:04:03.032Z,1.40
2022-10-26T02:08:33.424Z,1.33
2022-10-26T02:12:53.112Z,0.93
2022-10-26T02:17:13.305Z,1.35
2022-10-26T02:21:33.096Z,1.13
2022-10-26T02:26:00.879Z,0.90
2022-10-26T02:34:52.260Z,0.95
2022-10-26T02:39:05.078Z,1.45
2022-10-26T02:43:32.954Z,0.88
2022-10-26T02:47:35.262Z,1.17
2022-10-26T02:52:12.954Z,0.80
2022-10-26T02:56:43.178Z,1.15
2022-10-26T03:00:46.707Z,1.00
2022-10-26T03:04:51.328Z,1.40
2022-10-26T03:08:53.646Z,1.05
2022-10-26T03:12:56.508Z,1.48
2022-10-26T03:17:01.140Z,1.55
2022-10-26T03:21:03.484Z,1.30
2022-10-26T03:25:12.377Z,1.67
2022-10-26T03:29:14.541Z,1.50
2022-10-26T03:33:23.324Z,1.55
2022-10-26T03:37:32.514Z,1.23
2022-10-26T03:41:34.450Z,1.33
2022-10-26T03:45:41.877Z,1.30
2022-10-26T03:49:43.763Z,1.17
2022-10-26T03:53:53.102Z,1.40
2022-10-26T03:57:55.177Z,1.17
2022-10-26T04:02:02.367Z,1.30
2022-10-26T04:10:27.040Z,1.20
2022-10-26T04:14:34.546Z,1.70
2022-10-26T04:18:52.263Z,1.33
2022-10-26T04:23:14.864Z,1.50
2022-10-26T04:27:23.642Z,1.27
2022-10-26T04:31:30.851Z,1.35
2022-10-26T04:35:35.237Z,1.30
2022-10-26T04:39:45.233Z,1.40
2022-10-26T04:43:55.303Z,1.70
2022-10-26T04:52:59.130Z,1.80
2022-10-26T04:57:24.183Z,1.48
2022-10-26T05:01:27.099Z,1.58
2022-10-26T05:09:34.891Z,1.42
2022-10-26T05:13:42.817Z,1.58
2022-10-26T05:17:45.281Z,1.00
2022-10-26T05:22:08.974Z,1.63
2022-10-26T05:26:14.197Z,1.10
2022-10-26T05:35:18.641Z,1.48
2022-10-26T05:39:21.386Z,1.33
2022-10-26T05:43:28.628Z,1.33
2022-10-26T05:47:30.318Z,1.10
2022-10-26T05:51:39.671Z,1.58
2022-10-26T05:55:48.832Z,1.60
2022-10-26T05:59:54.780Z,1.55
2022-10-26T06:04:26.153Z,1.77
2022-10-26T06:08:29.175Z,2.10
2022-10-26T06:12:36.682Z,1.65
2022-10-26T06:17:33.548Z,2.10
2022-10-26T06:22:03.886Z,1.45
2022-10-26T06:26:36.906Z,1.77
2022-10-26T06:30:40.820Z,1.63
2022-10-26T06:34:48.384Z,1.70
2022-10-26T06:38:58.050Z,1.70
2022-10-26T06:43:00.533Z,1.98
2022-10-26T06:47:31.400Z,1.83
2022-10-26T06:51:41.143Z,1.10
2022-10-26T06:55:45.416Z,1.35
2022-10-26T07:00:01.056Z,1.52
2022-10-26T07:04:02.849Z,1.63
2022-10-26T07:08:05.438Z,2.28
2022-10-26T07:12:07.517Z,2.45
2022-10-26T07:16:09.292Z,1.73
2022-10-26T07:20:11.774Z,2.00
2022-10-26T07:24:13.473Z,2.35
2022-10-26T07:28:15.172Z,2.10
2022-10-26T07:32:16.888Z,2.50
2022-10-26T07:36:18.567Z,2.67
2022-10-26T07:44:21.970Z,2.47
2022-10-26T07:48:23.750Z,2.15
2022-10-26T07:52:25.437Z,2.47
2022-10-26T07:56:27.224Z,2.67
2022-10-26T08:00:29.743Z,2.10
2022-10-26T08:04:31.466Z,2.33
2022-10-26T08:08:33.703Z,3.00
2022-10-26T08:12:35.494Z,2.45
2022-10-26T08:16:40.022Z,1.80
2022-10-26T08:20:41.781Z,2.05
2022-10-26T08:24:46.628Z,1.63
2022-10-26T08:28:50.066Z,2.75
2022-10-26T08:33:02.288Z,1.80
2022-10-26T08:37:03.991Z,2.00
2022-10-26T08:41:08.919Z,2.17
2022-10-26T08:45:36.606Z,2.17
2022-10-26T08:49:48.402Z,2.00
2022-10-26T08:54:01.109Z,2.30
2022-10-26T08:58:08.098Z,1.85
2022-10-26T09:02:14.366Z,2.20
2022-10-26T09:06:33.708Z,2.10
2022-10-26T09:10:40.653Z,1.88
2022-10-26T09:14:49.101Z,2.42
2022-10-26T09:19:12.346Z,2.40
2022-10-26T09:23:27.931Z,2.10
2022-10-26T09:27:35.944Z,2.28
2022-10-26T09:31:47.086Z,2.50
2022-10-26T09:36:13.217Z,1.98
2022-10-26T09:40:36.502Z,2.33
2022-10-26T09:44:50.101Z,2.13
2022-10-26T09:48:56.819Z,2.13
2022-10-26T09:52:58.598Z,2.22
2022-10-26T09:57:02.163Z,1.60
2022-10-26T10:01:04.067Z,1.90
2022-10-26T10:05:49.855Z,2.40
2022-10-26T10:10:15.943Z,1.63
2022-10-26T10:14:20.713Z,1.70
2022-10-26T10:18:23.881Z,1.48
2022-10-26T10:22:26.403Z,1.60
2022-10-26T10:26:28.160Z,1.08
2022-10-26T10:30:32.765Z,1.30
2022-10-26T10:34:36.140Z,1.13
2022-10-26T10:38:43.961Z,1.25
2022-10-26T10:42:47.493Z,0.95
2022-10-26T10:46:49.617Z,0.98
2022-10-26T10:51:03.507Z,1.00
2022-10-26T10:55:21.358Z,1.25
2022-10-26T10:59:57.150Z,1.27
2022-10-26T11:04:45.613Z,1.58
2022-10-26T11:08:55.681Z,1.10
2022-10-26T11:13:03.038Z,1.00
2022-10-26T11:17:24.375Z,1.48
2022-10-26T11:21:31.385Z,1.90
2022-10-26T11:25:57.409Z,1.25
2022-10-26T11:30:33.579Z,1.23
2022-10-26T11:34:46.496Z,1.00
2022-10-26T11:39:06.839Z,1.10
2022-10-26T11:43:35.797Z,1.02
2022-10-26T11:47:46.860Z,1.23
2022-10-26T11:51:52.912Z,0.98
2022-10-26T11:55:56.370Z,0.90
2022-10-26T12:00:20.108Z,0.93
2022-10-26T12:04:26.796Z,1.05
2022-10-26T12:08:36.044Z,1.00
2022-10-26T12:12:50.277Z,0.90
2022-10-26T12:17:11.655Z,2.03
2022-10-26T12:21:15.037Z,0.80
2022-10-26T12:25:16.681Z,0.70
2022-10-26T12:29:31.079Z,0.80
2022-10-26T12:33:49.938Z,0.65
2022-10-26T12:37:51.857Z,1.00
2022-10-26T12:42:10.817Z,0.90
2022-10-26T12:46:12.387Z,1.00
2022-10-26T12:50:13.972Z,0.90
2022-10-26T12:54:41.757Z,1.10
2022-10-26T12:58:54.369Z,0.98
2022-10-26T13:03:32.695Z,0.80
2022-10-26T13:07:37.909Z,0.70
2022-10-26T13:11:47.033Z,1.08
2022-10-26T13:15:57.285Z,1.00
2022-10-26T13:20:01.532Z,0.88
2022-10-26T13:24:09.763Z,1.05
2022-10-26T13:28:40.833Z,1.10
2022-10-26T13:32:48.448Z,0.80
2022-10-26T13:37:14.123Z,0.80
2022-10-26T13:41:28.234Z,1.00
2022-10-26T13:45:55.075Z,0.75
2022-10-26T13:50:08.654Z,0.75
2022-10-26T13:54:22.091Z,0.60
2022-10-26T13:58:38.476Z,0.90
2022-10-26T14:02:43.167Z,0.40
2022-10-26T14:06:50.976Z,0.77
2022-10-26T14:10:57.145Z,0.63
2022-10-26T14:15:06.938Z,1.15
2022-10-26T14:19:16.256Z,0.50
2022-10-26T14:23:52.083Z,0.75
2022-10-26T14:27:55.142Z,0.68
2022-10-26T14:31:57.290Z,0.85
2022-10-26T14:35:59.024Z,0.50
2022-10-26T14:40:00.873Z,0.70
2022-10-26T14:44:03.677Z,0.90
2022-10-26T14:48:07.097Z,0.90
2022-10-26T14:52:40.722Z,1.98
2022-10-26T14:56:43.452Z,1.70
2022-10-26T15:05:34.785Z,1.13
2022-10-26T15:09:44.859Z,0.88
2022-10-26T15:13:46.596Z,0.80
2022-10-26T15:17:58.103Z,0.85
2022-10-26T15:21:59.817Z,1.08
2022-10-26T15:26:04.071Z,0.80
2022-10-26T15:30:19.973Z,0.80
2022-10-26T15:34:23.654Z,0.85
2022-10-26T15:38:29.762Z,0.60
2022-10-26T15:42:35.169Z,0.70
2022-10-26T15:46:38.962Z,0.82
2022-10-26T15:50:41.411Z,0.60
2022-10-26T15:54:43.116Z,0.60
2022-10-26T15:58:45.351Z,1.00
2022-10-26T16:02:47.390Z,1.00
2022-10-26T16:06:51.291Z,1.70
2022-10-26T16:10:52.942Z,1.70
2022-10-26T16:15:05.076Z,1.13
2022-10-26T16:23:31.163Z,1.33
2022-10-26T16:27:33.046Z,1.25
2022-10-26T16:31:34.833Z,1.00
2022-10-26T16:35:36.706Z,1.25
2022-10-26T16:39:38.378Z,1.48
2022-10-26T16:43:44.555Z,1.15
2022-10-26T16:47:46.247Z,1.05
2022-10-26T16:51:48.009Z,1.33
2022-10-26T16:55:49.796Z,1.25
2022-10-26T16:59:51.744Z,1.38
2022-10-26T17:03:53.646Z,1.23
2022-10-26T17:07:56.790Z,1.08
2022-10-26T17:12:01.944Z,1.60
2022-10-26T17:16:05.958Z,1.90
2022-10-26T17:20:08.266Z,1.48
2022-10-26T17:24:10.555Z,1.67
2022-10-26T17:28:12.989Z,1.33
2022-10-26T17:32:16.375Z,1.77
2022-10-26T17:36:20.581Z,1.40
2022-10-26T17:40:22.293Z,1.50
2022-10-26T17:44:24.026Z,1.27
2022-10-26T17:48:26.316Z,1.33
2022-10-26T17:52:27.998Z,1.73
2022-10-26T17:56:32.349Z,2.20
2022-10-26T18:00:34.765Z,1.38
2022-10-26T18:04:37.160Z,1.20
2022-10-26T18:08:40.640Z,1.30
2022-10-26T18:12:42.344Z,1.80
2022-10-26T18:16:47.096Z,2.20
2022-10-26T18:20:49.267Z,1.48
2022-10-26T18:24:50.946Z,1.63
2022-10-26T18:28:54.001Z,1.42
2022-10-26T18:32:55.883Z,1.90
2022-10-26T18:36:57.878Z,1.50
2022-10-26T18:41:00.432Z,1.43
2022-10-26T18:45:03.646Z,1.45
2022-10-26T18:49:06.485Z,1.98
2022-10-26T18:57:14.379Z,2.22
2022-10-26T19:01:22.318Z,1.50
2022-10-26T19:05:27.854Z,1.60
2022-10-26T19:09:29.544Z,1.67
2022-10-26T19:13:31.490Z,2.20
2022-10-26T19:17:35.295Z,1.90
2022-10-26T19:21:37.138Z,2.08
2022-10-26T19:25:38.784Z,1.52
2022-10-26T19:29:41.007Z,2.28
2022-10-26T19:33:42.832Z,4.38
2022-10-26T19:37:44.593Z,2.08
2022-10-26T19:41:46.875Z,2.38
2022-10-26T19:45:48.543Z,1.65
2022-10-26T19:49:50.392Z,1.60
2022-10-26T19:53:52.436Z,1.85
2022-10-26T19:57:54.313Z,1.83
2022-10-26T20:01:57.851Z,1.77
2022-10-26T20:06:02.200Z,2.05
2022-10-26T20:10:04.256Z,1.60
2022-10-26T20:14:07.394Z,2.83
2022-10-26T20:18:10.802Z,1.90
2022-10-26T20:22:12.575Z,1.77
2022-10-26T20:26:18.910Z,1.60
2022-10-26T20:30:25.432Z,1.75
2022-10-26T20:38:30.517Z,1.30
2022-10-26T20:42:32.431Z,1.60
2022-10-26T20:46:34.249Z,2.22
2022-10-26T20:50:36.197Z,1.80
2022-10-26T20:54:55.318Z,2.00
2022-10-26T20:59:00.001Z,1.73
2022-10-26T21:03:01.610Z,1.83
2022-10-26T21:07:03.281Z,1.73
2022-10-26T21:11:05.183Z,2.38
2022-10-26T21:15:07.513Z,1.90
2022-10-26T21:19:09.173Z,1.60
2022-10-26T21:23:10.789Z,2.38
2022-10-26T21:27:12.405Z,1.92
2022-10-26T21:31:17.129Z,1.98
2022-10-26T21:35:19.774Z,1.67
2022-10-26T21:39:21.397Z,2.03
2022-10-26T21:43:23.072Z,2.67
2022-10-26T21:47:24.652Z,1.80
2022-10-26T21:51:26.330Z,2.05
2022-10-26T21:55:27.945Z,1.95
2022-10-26T21:59:29.625Z,1.83
2022-10-26T22:03:31.340Z,2.05
2022-10-26T22:07:33.030Z,1.67
2022-10-26T22:11:34.813Z,2.03
2022-10-26T22:15:36.650Z,2.10
2022-10-26T22:19:38.419Z,2.00
2022-10-26T22:23:41.745Z,2.10
2022-10-26T22:27:43.401Z,1.83
2022-10-26T22:31:45.085Z,1.83
2022-10-26T22:35:46.749Z,2.45
2022-10-26T22:43:54.991Z,2.22
2022-10-26T22:47:56.644Z,1.58
2022-10-26T22:51:58.289Z,2.05
2022-10-26T22:56:00.514Z,1.90
2022-10-26T23:00:02.163Z,1.73
2022-10-26T23:04:04.118Z,1.70
2022-10-26T23:08:06.045Z,1.65
2022-10-26T23:12:07.733Z,1.65
2022-10-26T23:16:12.403Z,1.75
2022-10-26T23:20:14.112Z,1.67
2022-10-26T23:24:15.795Z,1.73
2022-10-26T23:28:17.561Z,1.85
2022-10-26T23:32:19.241Z,1.95
2022-10-26T23:36:21.209Z,1.77
2022-10-26T23:40:22.804Z,2.13
2022-10-26T23:44:24.468Z,2.13
2022-10-26T23:48:26.125Z,1.83
2022-10-26T23:52:27.730Z,1.80
2022-10-26T23:56:29.398Z,2.05
